Time;durP1;ratioP1;P1;durP2;ratioP2;P2;SDS_P1;SDS_P2;PMS_P1;PMS_P2;Temp;Humidity;BMP_temperature;BMP_pressure;BME280_temperature;BME280_humidity;BME280_pressure;Samples;Min_cycle;Max_cycle;Signal;HPM_P1;HPM_P2
2022/04/25 13:54:01;;;;;;;2.98;1.07;;;;;;;23.07;38.73;99458.70;1387630;88;21618;-95
2022/04/25 13:56:31;;;;;;;3.40;0.72;;;;;;;21.99;40.41;99455.89;1379210;87;22507;-96
2022/04/25 13:59:01;;;;;;;5.45;1.25;;;;;;;21.67;42.49;99465.62;1395054;85;22427;-96
2022/04/25 14:01:37;;;;;;;5.08;1.15;;;;;;;22.07;42.77;99464.91;1411237;87;21221;-95
2022/04/25 14:04:04;;;;;;;6.62;2.02;;;;;;;21.60;42.09;99467.91;1408748;87;22651;-95
2022/04/25 14:06:34;;;;;;;7.72;2.80;;;;;;;21.34;41.92;99464.45;1402385;86;21302;-94
2022/04/25 14:09:03;;;;;;;6.22;1.45;;;;;;;21.63;41.80;99466.08;1403767;87;22032;-91
2022/04/25 14:11:32;;;;;;;4.20;0.98;;;;;;;22.29;41.63;99460.13;1402312;88;21258;-90
2022/04/25 14:14:10;;;;;;;;;;;;;;;;;;;;;
2022/04/25 14:16:32;;;;;;;5.58;1.20;;;;;;;23.07;38.17;99464.11;1401876;87;21442;-92
2022/04/25 14:19:02;;;;;;;3.45;1.00;;;;;;;23.31;37.42;99461.41;1399623;88;22255;-91
2022/04/25 14:21:32;;;;;;;6.20;1.62;;;;;;;23.65;38.10;99462.00;1401428;88;21301;-91
2022/04/25 14:24:00;;;;;;;6.72;1.27;;;;;;;23.92;37.58;99468.45;1401572;87;22270;-90
2022/04/25 14:26:34;;;;;;;4.30;1.45;;;;;;;24.10;36.79;99470.73;1401896;87;21420;-90
2022/04/25 14:28:56;;;;;;;3.37;1.15;;;;;;;24.24;36.20;99465.16;1400757;88;22233;-92
2022/04/25 14:31:24;;;;;;;4.20;1.05;;;;;;;23.98;35.97;99472.28;1401900;87;21287;-89
2022/04/25 14:33:52;;;;;;;4.37;1.30;;;;;;;23.79;35.57;99475.90;1401606;87;21306;-91
2022/04/25 14:36:18;;;;;;;7.00;1.20;;;;;;;24.05;36.27;99465.29;1388224;89;22277;-89
2022/04/25 14:38:46;;;;;;;6.00;1.32;;;;;;;24.13;35.04;99462.11;1377595;89;21309;-88
2022/04/25 14:41:12;;;;;;;2.33;0.80;;;;;;;24.44;35.41;99465.04;1402944;87;21383;-89
2022/04/25 14:43:39;;;;;;;2.55;1.05;;;;;;;24.48;34.12;99467.48;1401433;88;22138;-90
2022/04/25 14:46:07;;;;;;;3.42;1.05;;;;;;;24.35;34.35;99461.98;1388332;87;21434;-90
2022/04/25 14:48:33;;;;;;;3.60;1.30;;;;;;;24.30;34.44;99466.81;1388159;88;21294;-89
2022/04/25 14:56:38;;;;;;;7.03;1.10;;;;;;;22.24;37.50;99465.44;1394661;88;21375;-95
2022/04/25 14:59:09;;;;;;;2.85;0.80;;;;;;;21.46;39.43;99463.89;1407386;87;21323;-95
2022/04/25 15:01:42;;;;;;;2.30;1.00;;;;;;;20.89;41.03;99466.58;1411259;85;21747;-96
2022/04/25 15:04:12;;;;;;;5.15;1.77;;;;;;;20.63;42.15;99470.09;1408463;85;21616;-96
2022/04/25 15:06:44;;;;;;;2.25;1.02;;;;;;;20.83;42.37;99468.84;1412516;86;21551;31
2022/04/25 15:09:12;;;;;;;2.92;0.98;;;;;;;20.77;41.65;99467.12;1418947;86;21669;-95
2022/04/25 15:17:17;;;;;;;6.62;1.25;;;;;;;20.44;41.62;99468.55;1345162;89;21763;-93
2022/04/25 15:19:44;;;;;;;2.02;1.32;;;;;;;20.61;41.00;99471.38;1337697;93;21291;-95
2022/04/25 15:22:18;;;;;;;2.45;1.57;;;;;;;20.54;40.63;99470.14;1337841;92;21313;-96
2022/04/25 15:24:48;;;;;;;8.15;1.32;;;;;;;20.10;39.88;99461.61;1336771;93;22097;-94
2022/04/25 15:27:15;;;;;;;1.25;0.90;;;;;;;20.10;39.88;99461.61;1336830;93;21372;-95
2022/04/25 15:29:44;;;;;;;2.25;1.15;;;;;;;20.00;39.43;99472.13;1337726;91;21335;-93
2022/04/25 15:42:47;;;;;;;5.28;1.42;;;;;;;18.94;42.82;99487.34;1408167;85;21776;-92
2022/04/25 15:45:16;;;;;;;1.67;1.55;;;;;;;18.98;43.61;99492.25;1415685;86;21552;-94
2022/04/25 15:47:59;;;;;;;;;;;;;;;;;;;;;
2022/04/25 15:50:30;;;;;;;4.45;1.52;;;;;;;19.55;42.95;99486.02;1411835;87;21287;-96
2022/04/25 15:52:55;;;;;;;4.05;1.47;;;;;;;19.98;42.40;99478.25;1415288;87;21522;-93
2022/04/25 16:01:15;;;;;;;2.37;1.50;;;;;;;21.54;40.22;99481.00;1389735;86;21664;31
2022/04/25 16:03:47;;;;;;;6.17;2.33;;;;;;;21.81;39.41;99483.09;1366782;91;21331;-96
2022/04/25 16:06:16;;;;;;;3.17;1.62;;;;;;;21.72;38.68;99486.72;1326118;89;21691;-92
2022/04/25 16:08:43;;;;;;;4.10;2.50;;;;;;;21.63;38.63;99484.92;1379301;89;21315;-92
2022/04/25 16:11:10;;;;;;;2.80;1.70;;;;;;;21.50;38.80;99485.25;1380330;89;21287;-96
2022/04/25 16:13:36;;;;;;;3.22;1.50;;;;;;;21.59;38.82;99486.48;1374459;89;21440;-96
2022/04/25 16:16:03;;;;;;;2.42;1.20;;;;;;;21.44;38.86;99488.91;1368983;90;22498;-92
2022/04/25 16:18:29;;;;;;;2.50;1.57;;;;;;;21.32;39.39;99491.63;1365562;89;21531;-95
2022/04/25 16:20:57;;;;;;;4.83;1.55;;;;;;;20.88;39.18;99506.61;1365751;90;22308;-93
2022/04/25 16:25:55;;;;;;;3.45;1.30;;;;;;;20.24;41.03;99501.97;1366500;90;21505;-92
2022/04/25 16:28:21;;;;;;;3.02;1.27;;;;;;;20.18;40.53;99494.84;1359056;90;21486;-95
2022/04/25 16:30:49;;;;;;;1.12;0.88;;;;;;;20.26;40.44;99503.91;1346893;91;21310;-96
2022/04/25 16:33:16;;;;;;;4.97;1.20;;;;;;;20.01;40.38;99512.70;1358179;90;22107;-88
2022/04/25 16:35:42;;;;;;;6.90;0.95;;;;;;;19.48;40.50;99513.45;1348217;90;22175;-88
2022/04/25 16:38:12;;;;;;;1.87;1.27;;;;;;;19.07;41.06;99520.39;1359344;92;21282;-88
2022/04/25 16:40:38;;;;;;;1.02;0.93;;;;;;;18.67;42.26;99514.11;1358593;91;21275;-88
2022/04/25 16:43:04;;;;;;;3.72;1.00;;;;;;;18.39;42.14;99516.77;1347913;91;22140;-88
2022/04/25 16:45:31;;;;;;;5.30;0.90;;;;;;;18.16;42.57;99521.94;1358858;92;21332;-89
2022/04/25 16:47:57;;;;;;;5.33;1.13;;;;;;;17.94;43.19;99533.00;1349085;91;21443;-89
2022/04/25 16:50:23;;;;;;;2.27;1.30;;;;;;;17.75;43.64;99536.11;1361131;91;21332;-89
2022/04/25 16:52:51;;;;;;;2.77;1.10;;;;;;;17.56;44.32;99542.39;1346877;92;21310;-86
2022/04/25 16:55:17;;;;;;;1.10;0.80;;;;;;;17.40;44.56;99544.22;1360998;91;22427;-89
2022/04/25 16:57:43;;;;;;;2.37;1.03;;;;;;;17.26;45.03;99545.64;1360771;91;21434;-88
2022/04/25 17:00:11;;;;;;;3.33;1.13;;;;;;;17.17;45.53;99550.08;1359981;91;21444;-90
2022/04/25 17:02:39;;;;;;;2.83;1.13;;;;;;;17.09;45.63;99548.45;1360407;91;21310;-86
2022/04/25 17:05:06;;;;;;;4.87;1.07;;;;;;;17.02;46.26;99546.34;1360388;89;21303;-87
2022/04/25 17:07:32;;;;;;;2.37;1.37;;;;;;;16.98;46.33;99550.48;1347184;91;21362;-86
2022/04/25 17:09:59;;;;;;;2.80;0.93;;;;;;;16.87;47.06;99553.27;1349881;92;21296;-89
2022/04/25 17:12:25;;;;;;;5.43;1.30;;;;;;;16.77;47.45;99555.55;1359628;91;22333;-87
2022/04/25 17:14:53;;;;;;;5.00;1.13;;;;;;;16.66;47.67;99565.02;1360794;91;21359;-87
2022/04/25 17:17:19;;;;;;;1.60;1.17;;;;;;;16.58;48.00;99559.36;1358508;89;21340;-87
2022/04/25 17:19:45;;;;;;;2.10;1.40;;;;;;;16.48;48.31;99558.95;1347334;92;21303;-90
2022/04/25 17:22:11;;;;;;;1.90;1.20;;;;;;;16.38;48.61;99563.39;1350572;92;23020;-89
2022/04/25 17:24:37;;;;;;;3.27;1.50;;;;;;;16.29;48.96;99566.48;1368446;88;21458;-88
2022/04/25 17:27:04;;;;;;;2.23;1.60;;;;;;;16.19;49.38;99565.02;1338720;93;21265;-88
2022/04/25 17:29:30;;;;;;;3.20;1.20;;;;;;;16.10;49.60;99570.25;1367553;89;21384;-90
